sensor_id;sensor_type;location;lat;lon;timestamp;temperature;humidity
72126;SHT31;59999;51.676;22.650;2024-01-16T00:00:56;-0.99;70.68
72126;SHT31;59999;51.676;22.650;2024-01-16T00:03:41;-0.97;70.48
72126;SHT31;59999;51.676;22.650;2024-01-16T00:06:07;-0.97;70.41
72126;SHT31;59999;51.676;22.650;2024-01-16T00:08:33;-0.96;70.74
72126;SHT31;59999;51.676;22.650;2024-01-16T00:11:01;-0.96;70.75
72126;SHT31;59999;51.676;22.650;2024-01-16T00:13:27;-1.00;70.88
72126;SHT31;59999;51.676;22.650;2024-01-16T00:15:53;-0.97;71.21
72126;SHT31;59999;51.676;22.650;2024-01-16T00:18:18;-1.00;71.44
72126;SHT31;59999;51.676;22.650;2024-01-16T00:20:44;-0.96;71.28
72126;SHT31;59999;51.676;22.650;2024-01-16T00:23:10;-0.97;71.75
72126;SHT31;59999;51.676;22.650;2024-01-16T00:25:36;-1.00;71.38
72126;SHT31;59999;51.676;22.650;2024-01-16T00:28:02;-1.00;72.00
72126;SHT31;59999;51.676;22.650;2024-01-16T00:30:29;-1.00;72.15
72126;SHT31;59999;51.676;22.650;2024-01-16T00:32:54;-1.03;71.96
72126;SHT31;59999;51.676;22.650;2024-01-16T00:35:21;-1.09;72.15
72126;SHT31;59999;51.676;22.650;2024-01-16T00:37:46;-1.10;72.20
72126;SHT31;59999;51.676;22.650;2024-01-16T00:40:12;-1.12;72.51
72126;SHT31;59999;51.676;22.650;2024-01-16T00:42:38;-1.13;72.33
72126;SHT31;59999;51.676;22.650;2024-01-16T00:45:05;-1.16;72.15
72126;SHT31;59999;51.676;22.650;2024-01-16T00:47:30;-1.17;71.98
72126;SHT31;59999;51.676;22.650;2024-01-16T00:49:56;-1.19;70.86
72126;SHT31;59999;51.676;22.650;2024-01-16T00:52:22;-1.19;70.80
72126;SHT31;59999;51.676;22.650;2024-01-16T00:54:48;-1.14;70.80
72126;SHT31;59999;51.676;22.650;2024-01-16T00:57:13;-1.17;70.28
72126;SHT31;59999;51.676;22.650;2024-01-16T00:59:42;-1.23;69.30
72126;SHT31;59999;51.676;22.650;2024-01-16T01:02:07;-1.23;69.45
72126;SHT31;59999;51.676;22.650;2024-01-16T01:04:35;-1.24;68.52
72126;SHT31;59999;51.676;22.650;2024-01-16T01:07:01;-1.29;67.37
72126;SHT31;59999;51.676;22.650;2024-01-16T01:09:27;-1.27;67.28
72126;SHT31;59999;51.676;22.650;2024-01-16T01:11:52;-1.33;67.72
72126;SHT31;59999;51.676;22.650;2024-01-16T01:14:18;-1.34;67.70
72126;SHT31;59999;51.676;22.650;2024-01-16T01:16:44;-1.36;66.78
72126;SHT31;59999;51.676;22.650;2024-01-16T01:19:09;-1.36;66.88
72126;SHT31;59999;51.676;22.650;2024-01-16T01:21:35;-1.40;67.77
72126;SHT31;59999;51.676;22.650;2024-01-16T01:24:01;-1.44;67.10
72126;SHT31;59999;51.676;22.650;2024-01-16T01:26:27;-1.44;67.17
72126;SHT31;59999;51.676;22.650;2024-01-16T01:28:53;-1.48;67.59
72126;SHT31;59999;51.676;22.650;2024-01-16T01:31:18;-1.47;67.36
72126;SHT31;59999;51.676;22.650;2024-01-16T01:33:44;-1.48;67.46
72126;SHT31;59999;51.676;22.650;2024-01-16T01:36:10;-1.48;67.34
72126;SHT31;59999;51.676;22.650;2024-01-16T01:38:36;-1.48;67.41
72126;SHT31;59999;51.676;22.650;2024-01-16T01:41:01;-1.53;67.45
72126;SHT31;59999;51.676;22.650;2024-01-16T01:43:27;-1.54;67.76
72126;SHT31;59999;51.676;22.650;2024-01-16T01:48:25;-1.60;68.13
72126;SHT31;59999;51.676;22.650;2024-01-16T01:50:51;-1.57;68.36
72126;SHT31;59999;51.676;22.650;2024-01-16T01:53:16;-1.63;68.15
72126;SHT31;59999;51.676;22.650;2024-01-16T01:55:42;-1.60;68.46
72126;SHT31;59999;51.676;22.650;2024-01-16T01:58:08;-1.64;68.69
72126;SHT31;59999;51.676;22.650;2024-01-16T02:00:34;-1.60;68.25
72126;SHT31;59999;51.676;22.650;2024-01-16T02:03:00;-1.60;68.35
72126;SHT31;59999;51.676;22.650;2024-01-16T02:05:27;-1.57;68.54
72126;SHT31;59999;51.676;22.650;2024-01-16T02:07:53;-1.61;68.29
72126;SHT31;59999;51.676;22.650;2024-01-16T02:10:18;-1.60;68.41
72126;SHT31;59999;51.676;22.650;2024-01-16T02:12:44;-1.60;68.33
72126;SHT31;59999;51.676;22.650;2024-01-16T02:15:11;-1.58;68.62
72126;SHT31;59999;51.676;22.650;2024-01-16T02:17:38;-1.60;67.80
72126;SHT31;59999;51.676;22.650;2024-01-16T02:20:04;-1.61;67.96
72126;SHT31;59999;51.676;22.650;2024-01-16T02:22:33;-1.58;67.28
72126;SHT31;59999;51.676;22.650;2024-01-16T02:24:59;-1.61;67.58
72126;SHT31;59999;51.676;22.650;2024-01-16T02:27:25;-1.64;68.00
72126;SHT31;59999;51.676;22.650;2024-01-16T02:29:51;-1.67;68.09
72126;SHT31;59999;51.676;22.650;2024-01-16T02:32:17;-1.65;67.95
72126;SHT31;59999;51.676;22.650;2024-01-16T02:34:42;-1.68;67.72
72126;SHT31;59999;51.676;22.650;2024-01-16T02:37:09;-1.67;67.74
72126;SHT31;59999;51.676;22.650;2024-01-16T02:39:35;-1.72;67.41
72126;SHT31;59999;51.676;22.650;2024-01-16T02:42:00;-1.71;67.73
72126;SHT31;59999;51.676;22.650;2024-01-16T02:44:26;-1.71;67.57
72126;SHT31;59999;51.676;22.650;2024-01-16T02:46:52;-1.70;67.65
72126;SHT31;59999;51.676;22.650;2024-01-16T02:49:18;-1.74;67.63
72126;SHT31;59999;51.676;22.650;2024-01-16T02:51:44;-1.75;67.86
72126;SHT31;59999;51.676;22.650;2024-01-16T02:54:09;-1.74;67.81
72126;SHT31;59999;51.676;22.650;2024-01-16T02:56:35;-1.70;67.41
72126;SHT31;59999;51.676;22.650;2024-01-16T02:59:01;-1.74;67.12
72126;SHT31;59999;51.676;22.650;2024-01-16T03:01:26;-1.77;67.44
72126;SHT31;59999;51.676;22.650;2024-01-16T03:03:52;-1.78;67.00
72126;SHT31;59999;51.676;22.650;2024-01-16T03:06:22;-1.77;67.20
72126;SHT31;59999;51.676;22.650;2024-01-16T03:08:48;-1.78;67.68
72126;SHT31;59999;51.676;22.650;2024-01-16T03:11:14;-1.79;67.66
72126;SHT31;59999;51.676;22.650;2024-01-16T03:13:40;-1.78;67.46
72126;SHT31;59999;51.676;22.650;2024-01-16T03:16:07;-1.82;67.34
72126;SHT31;59999;51.676;22.650;2024-01-16T03:18:32;-1.84;65.77
72126;SHT31;59999;51.676;22.650;2024-01-16T03:20:59;-1.86;66.59
72126;SHT31;59999;51.676;22.650;2024-01-16T03:23:24;-1.89;67.22
72126;SHT31;59999;51.676;22.650;2024-01-16T03:25:50;-1.93;67.15
72126;SHT31;59999;51.676;22.650;2024-01-16T03:28:16;-1.98;67.02
72126;SHT31;59999;51.676;22.650;2024-01-16T03:30:42;-1.99;66.97
72126;SHT31;59999;51.676;22.650;2024-01-16T03:33:08;-1.96;67.37
72126;SHT31;59999;51.676;22.650;2024-01-16T03:35:33;-2.02;67.40
72126;SHT31;59999;51.676;22.650;2024-01-16T03:37:59;-1.98;67.97
72126;SHT31;59999;51.676;22.650;2024-01-16T03:40:25;-1.98;68.22
72126;SHT31;59999;51.676;22.650;2024-01-16T03:42:51;-1.96;67.89
72126;SHT31;59999;51.676;22.650;2024-01-16T03:45:16;-1.98;67.54
72126;SHT31;59999;51.676;22.650;2024-01-16T03:47:42;-1.95;66.79
72126;SHT31;59999;51.676;22.650;2024-01-16T03:50:08;-1.92;66.21
72126;SHT31;59999;51.676;22.650;2024-01-16T03:52:34;-1.91;66.29
72126;SHT31;59999;51.676;22.650;2024-01-16T03:55:00;-1.93;64.81
72126;SHT31;59999;51.676;22.650;2024-01-16T03:57:26;-1.99;65.10
72126;SHT31;59999;51.676;22.650;2024-01-16T03:59:51;-1.98;64.21
72126;SHT31;59999;51.676;22.650;2024-01-16T04:02:17;-1.99;65.16
72126;SHT31;59999;51.676;22.650;2024-01-16T04:04:43;-2.05;64.98
72126;SHT31;59999;51.676;22.650;2024-01-16T04:07:09;-2.10;65.82
72126;SHT31;59999;51.676;22.650;2024-01-16T04:09:34;-2.18;66.67
72126;SHT31;59999;51.676;22.650;2024-01-16T04:12:00;-2.29;67.09
72126;SHT31;59999;51.676;22.650;2024-01-16T04:14:26;-2.29;67.14
72126;SHT31;59999;51.676;22.650;2024-01-16T04:16:52;-2.34;67.58
72126;SHT31;59999;51.676;22.650;2024-01-16T04:19:18;-2.39;68.35
72126;SHT31;59999;51.676;22.650;2024-01-16T04:21:43;-2.40;68.81
72126;SHT31;59999;51.676;22.650;2024-01-16T04:24:09;-2.40;69.11
72126;SHT31;59999;51.676;22.650;2024-01-16T04:26:36;-2.41;69.25
72126;SHT31;59999;51.676;22.650;2024-01-16T04:29:03;-2.44;69.13
72126;SHT31;59999;51.676;22.650;2024-01-16T04:31:30;-2.41;69.15
72126;SHT31;59999;51.676;22.650;2024-01-16T04:33:55;-2.47;69.34
72126;SHT31;59999;51.676;22.650;2024-01-16T04:36:21;-2.49;69.46
72126;SHT31;59999;51.676;22.650;2024-01-16T04:38:47;-2.49;69.13
72126;SHT31;59999;51.676;22.650;2024-01-16T04:41:13;-2.49;69.34
72126;SHT31;59999;51.676;22.650;2024-01-16T04:43:38;-2.51;69.46
72126;SHT31;59999;51.676;22.650;2024-01-16T04:46:04;-2.56;69.48
72126;SHT31;59999;51.676;22.650;2024-01-16T04:48:30;-2.54;69.33
72126;SHT31;59999;51.676;22.650;2024-01-16T04:50:56;-2.58;69.16
72126;SHT31;59999;51.676;22.650;2024-01-16T04:53:22;-2.62;69.15
72126;SHT31;59999;51.676;22.650;2024-01-16T04:55:49;-2.67;68.75
72126;SHT31;59999;51.676;22.650;2024-01-16T04:58:15;-2.68;68.50
72126;SHT31;59999;51.676;22.650;2024-01-16T05:00:40;-2.72;68.53
72126;SHT31;59999;51.676;22.650;2024-01-16T05:03:06;-2.77;68.64
72126;SHT31;59999;51.676;22.650;2024-01-16T05:05:32;-2.82;68.64
72126;SHT31;59999;51.676;22.650;2024-01-16T05:08:00;-2.82;68.77
72126;SHT31;59999;51.676;22.650;2024-01-16T05:10:26;-2.89;68.55
72126;SHT31;59999;51.676;22.650;2024-01-16T05:12:52;-2.95;69.05
72126;SHT31;59999;51.676;22.650;2024-01-16T05:15:18;-3.01;68.99
72126;SHT31;59999;51.676;22.650;2024-01-16T05:17:43;-3.08;69.60
72126;SHT31;59999;51.676;22.650;2024-01-16T05:20:09;-3.09;69.92
72126;SHT31;59999;51.676;22.650;2024-01-16T05:22:36;-3.13;70.25
72126;SHT31;59999;51.676;22.650;2024-01-16T05:25:04;-3.20;70.60
72126;SHT31;59999;51.676;22.650;2024-01-16T05:27:29;-3.24;70.89
72126;SHT31;59999;51.676;22.650;2024-01-16T05:29:56;-3.29;71.12
72126;SHT31;59999;51.676;22.650;2024-01-16T05:32:22;-3.33;71.21
72126;SHT31;59999;51.676;22.650;2024-01-16T05:34:48;-3.36;71.40
72126;SHT31;59999;51.676;22.650;2024-01-16T05:37:14;-3.42;71.74
72126;SHT31;59999;51.676;22.650;2024-01-16T05:39:39;-3.49;72.02
72126;SHT31;59999;51.676;22.650;2024-01-16T05:42:05;-3.51;72.19
72126;SHT31;59999;51.676;22.650;2024-01-16T05:44:31;-3.53;72.32
72126;SHT31;59999;51.676;22.650;2024-01-16T05:46:57;-3.56;72.28
72126;SHT31;59999;51.676;22.650;2024-01-16T05:49:23;-3.54;72.36
72126;SHT31;59999;51.676;22.650;2024-01-16T05:51:49;-3.54;72.29
72126;SHT31;59999;51.676;22.650;2024-01-16T05:54:14;-3.50;72.08
72126;SHT31;59999;51.676;22.650;2024-01-16T05:56:40;-3.50;72.16
72126;SHT31;59999;51.676;22.650;2024-01-16T05:59:07;-3.49;72.16
72126;SHT31;59999;51.676;22.650;2024-01-16T06:01:32;-3.50;72.25
72126;SHT31;59999;51.676;22.650;2024-01-16T06:03:59;-3.50;72.16
72126;SHT31;59999;51.676;22.650;2024-01-16T06:06:25;-3.53;72.20
72126;SHT31;59999;51.676;22.650;2024-01-16T06:08:51;-3.57;72.50
72126;SHT31;59999;51.676;22.650;2024-01-16T06:11:18;-3.57;72.56
72126;SHT31;59999;51.676;22.650;2024-01-16T06:13:45;-3.61;72.43
72126;SHT31;59999;51.676;22.650;2024-01-16T06:16:11;-3.66;72.70
72126;SHT31;59999;51.676;22.650;2024-01-16T06:18:36;-3.67;72.73
72126;SHT31;59999;51.676;22.650;2024-01-16T06:21:03;-3.67;72.67
72126;SHT31;59999;51.676;22.650;2024-01-16T06:23:29;-3.74;72.96
72126;SHT31;59999;51.676;22.650;2024-01-16T06:25:55;-3.78;73.03
72126;SHT31;59999;51.676;22.650;2024-01-16T06:28:21;-3.84;73.25
72126;SHT31;59999;51.676;22.650;2024-01-16T06:30:47;-3.87;73.27
72126;SHT31;59999;51.676;22.650;2024-01-16T06:33:12;-3.92;73.39
72126;SHT31;59999;51.676;22.650;2024-01-16T06:35:38;-3.94;73.50
72126;SHT31;59999;51.676;22.650;2024-01-16T06:38:04;-3.98;73.57
72126;SHT31;59999;51.676;22.650;2024-01-16T06:40:30;-3.99;73.55
72126;SHT31;59999;51.676;22.650;2024-01-16T06:42:55;-3.99;73.62
72126;SHT31;59999;51.676;22.650;2024-01-16T06:45:21;-4.01;73.66
72126;SHT31;59999;51.676;22.650;2024-01-16T06:47:47;-3.95;73.67
72126;SHT31;59999;51.676;22.650;2024-01-16T06:50:13;-3.91;73.71
72126;SHT31;59999;51.676;22.650;2024-01-16T06:52:38;-3.85;73.55
72126;SHT31;59999;51.676;22.650;2024-01-16T06:55:04;-3.81;73.46
72126;SHT31;59999;51.676;22.650;2024-01-16T06:57:30;-3.77;73.38
72126;SHT31;59999;51.676;22.650;2024-01-16T06:59:56;-3.75;73.37
72126;SHT31;59999;51.676;22.650;2024-01-16T07:02:22;-3.66;73.10
72126;SHT31;59999;51.676;22.650;2024-01-16T07:04:48;-3.63;72.88
72126;SHT31;59999;51.676;22.650;2024-01-16T07:07:13;-3.54;72.93
72126;SHT31;59999;51.676;22.650;2024-01-16T07:09:39;-3.53;72.99
72126;SHT31;59999;51.676;22.650;2024-01-16T07:12:05;-3.50;72.86
72126;SHT31;59999;51.676;22.650;2024-01-16T07:14:32;-3.53;73.10
72126;SHT31;59999;51.676;22.650;2024-01-16T07:16:58;-3.53;73.00
72126;SHT31;59999;51.676;22.650;2024-01-16T07:19:24;-3.53;73.01
72126;SHT31;59999;51.676;22.650;2024-01-16T07:21:50;-3.54;73.18
72126;SHT31;59999;51.676;22.650;2024-01-16T07:24:16;-3.60;73.23
72126;SHT31;59999;51.676;22.650;2024-01-16T07:26:41;-3.60;73.34
72126;SHT31;59999;51.676;22.650;2024-01-16T07:29:07;-3.57;73.54
72126;SHT31;59999;51.676;22.650;2024-01-16T07:31:33;-3.59;73.44
72126;SHT31;59999;51.676;22.650;2024-01-16T07:33:59;-3.59;73.42
72126;SHT31;59999;51.676;22.650;2024-01-16T07:36:25;-3.59;73.41
72126;SHT31;59999;51.676;22.650;2024-01-16T07:38:51;-3.53;73.48
72126;SHT31;59999;51.676;22.650;2024-01-16T07:41:16;-3.49;73.20
72126;SHT31;59999;51.676;22.650;2024-01-16T07:43:42;-3.46;73.24
72126;SHT31;59999;51.676;22.650;2024-01-16T07:46:08;-3.47;73.25
72126;SHT31;59999;51.676;22.650;2024-01-16T07:48:34;-3.44;73.20
72126;SHT31;59999;51.676;22.650;2024-01-16T07:50:59;-3.44;73.02
72126;SHT31;59999;51.676;22.650;2024-01-16T07:53:25;-3.39;72.99
72126;SHT31;59999;51.676;22.650;2024-01-16T07:55:53;-3.40;72.87
72126;SHT31;59999;51.676;22.650;2024-01-16T07:58:21;-3.36;73.02
72126;SHT31;59999;51.676;22.650;2024-01-16T08:00:47;-3.29;72.54
72126;SHT31;59999;51.676;22.650;2024-01-16T08:03:13;-3.26;72.31
72126;SHT31;59999;51.676;22.650;2024-01-16T08:05:40;-3.24;72.13
72126;SHT31;59999;51.676;22.650;2024-01-16T08:08:08;-3.16;72.02
72126;SHT31;59999;51.676;22.650;2024-01-16T08:10:37;-3.09;71.92
72126;SHT31;59999;51.676;22.650;2024-01-16T08:13:03;-3.01;71.93
72126;SHT31;59999;51.676;22.650;2024-01-16T08:15:29;-2.91;71.73
72126;SHT31;59999;51.676;22.650;2024-01-16T08:17:55;-2.87;71.29
72126;SHT31;59999;51.676;22.650;2024-01-16T08:20:21;-2.89;71.27
72126;SHT31;59999;51.676;22.650;2024-01-16T08:22:46;-2.88;71.33
72126;SHT31;59999;51.676;22.650;2024-01-16T08:25:12;-2.95;71.43
72126;SHT31;59999;51.676;22.650;2024-01-16T08:27:38;-2.98;71.75
72126;SHT31;59999;51.676;22.650;2024-01-16T08:30:05;-3.05;71.89
72126;SHT31;59999;51.676;22.650;2024-01-16T08:32:31;-3.06;72.08
72126;SHT31;59999;51.676;22.650;2024-01-16T08:34:57;-3.05;71.92
72126;SHT31;59999;51.676;22.650;2024-01-16T08:37:23;-3.05;71.97
72126;SHT31;59999;51.676;22.650;2024-01-16T08:39:51;-3.06;71.47
72126;SHT31;59999;51.676;22.650;2024-01-16T08:42:17;-3.08;71.44
72126;SHT31;59999;51.676;22.650;2024-01-16T08:44:43;-3.19;71.49
72126;SHT31;59999;51.676;22.650;2024-01-16T08:47:09;-3.16;71.21
72126;SHT31;59999;51.676;22.650;2024-01-16T08:49:35;-3.29;70.69
72126;SHT31;59999;51.676;22.650;2024-01-16T08:52:01;-3.38;70.47
72126;SHT31;59999;51.676;22.650;2024-01-16T08:54:28;-3.42;70.93
72126;SHT31;59999;51.676;22.650;2024-01-16T08:56:54;-3.46;71.11
72126;SHT31;59999;51.676;22.650;2024-01-16T08:59:19;-3.51;71.38
72126;SHT31;59999;51.676;22.650;2024-01-16T09:01:45;-3.54;71.42
72126;SHT31;59999;51.676;22.650;2024-01-16T09:04:11;-3.54;71.31
72126;SHT31;59999;51.676;22.650;2024-01-16T09:06:37;-3.60;70.65
72126;SHT31;59999;51.676;22.650;2024-01-16T09:09:03;-3.71;71.05
72126;SHT31;59999;51.676;22.650;2024-01-16T09:11:30;-3.82;71.28
72126;SHT31;59999;51.676;22.650;2024-01-16T09:13:57;-3.78;71.62
72126;SHT31;59999;51.676;22.650;2024-01-16T09:16:23;-3.77;71.85
72126;SHT31;59999;51.676;22.650;2024-01-16T09:18:49;-3.74;71.41
72126;SHT31;59999;51.676;22.650;2024-01-16T09:21:15;-3.74;71.39
72126;SHT31;59999;51.676;22.650;2024-01-16T09:23:41;-3.68;71.48
72126;SHT31;59999;51.676;22.650;2024-01-16T09:26:07;-3.63;71.97
72126;SHT31;59999;51.676;22.650;2024-01-16T09:28:33;-3.61;71.72
72126;SHT31;59999;51.676;22.650;2024-01-16T09:30:59;-3.54;71.58
72126;SHT31;59999;51.676;22.650;2024-01-16T09:33:25;-3.49;71.54
72126;SHT31;59999;51.676;22.650;2024-01-16T09:35:51;-3.35;71.67
72126;SHT31;59999;51.676;22.650;2024-01-16T09:38:17;-3.29;70.47
72126;SHT31;59999;51.676;22.650;2024-01-16T09:40:43;-3.26;70.08
72126;SHT31;59999;51.676;22.650;2024-01-16T09:43:09;-3.26;69.95
72126;SHT31;59999;51.676;22.650;2024-01-16T09:45:37;-3.22;70.01
72126;SHT31;59999;51.676;22.650;2024-01-16T09:48:04;-3.17;69.77
72126;SHT31;59999;51.676;22.650;2024-01-16T09:50:31;-3.22;68.45
72126;SHT31;59999;51.676;22.650;2024-01-16T09:52:56;-3.19;68.65
72126;SHT31;59999;51.676;22.650;2024-01-16T09:55:22;-3.15;68.38
72126;SHT31;59999;51.676;22.650;2024-01-16T09:57:53;-3.11;67.87
72126;SHT31;59999;51.676;22.650;2024-01-16T10:00:19;-3.12;68.44
72126;SHT31;59999;51.676;22.650;2024-01-16T10:02:46;-3.13;68.47
72126;SHT31;59999;51.676;22.650;2024-01-16T10:05:13;-3.03;68.40
72126;SHT31;59999;51.676;22.650;2024-01-16T10:07:42;-3.06;68.08
72126;SHT31;59999;51.676;22.650;2024-01-16T10:10:11;-3.06;68.41
72126;SHT31;59999;51.676;22.650;2024-01-16T10:12:38;-3.15;68.55
72126;SHT31;59999;51.676;22.650;2024-01-16T10:15:08;-3.05;69.29
72126;SHT31;59999;51.676;22.650;2024-01-16T10:17:43;-3.01;68.49
72126;SHT31;59999;51.676;22.650;2024-01-16T10:20:10;-2.91;68.50
72126;SHT31;59999;51.676;22.650;2024-01-16T10:22:39;-2.81;67.74
72126;SHT31;59999;51.676;22.650;2024-01-16T10:25:07;-2.80;67.01
72126;SHT31;59999;51.676;22.650;2024-01-16T10:27:34;-2.88;66.93
72126;SHT31;59999;51.676;22.650;2024-01-16T10:30:01;-2.91;67.25
72126;SHT31;59999;51.676;22.650;2024-01-16T10:32:35;-2.87;67.89
72126;SHT31;59999;51.676;22.650;2024-01-16T10:37:51;-2.89;66.80
72126;SHT31;59999;51.676;22.650;2024-01-16T10:40:21;-2.84;66.38
72126;SHT31;59999;51.676;22.650;2024-01-16T10:43:04;-2.87;66.49
72126;SHT31;59999;51.676;22.650;2024-01-16T10:45:33;-2.89;66.49
72126;SHT31;59999;51.676;22.650;2024-01-16T10:48:07;-3.02;65.77
72126;SHT31;59999;51.676;22.650;2024-01-16T10:50:34;-2.89;65.72
72126;SHT31;59999;51.676;22.650;2024-01-16T10:53:04;-2.91;64.78
72126;SHT31;59999;51.676;22.650;2024-01-16T10:55:31;-2.89;65.24
72126;SHT31;59999;51.676;22.650;2024-01-16T10:58:02;-2.88;65.74
72126;SHT31;59999;51.676;22.650;2024-01-16T11:00:29;-2.96;66.25
72126;SHT31;59999;51.676;22.650;2024-01-16T11:03:05;-2.91;66.61
72126;SHT31;59999;51.676;22.650;2024-01-16T11:05:33;-2.87;66.80
72126;SHT31;59999;51.676;22.650;2024-01-16T11:07:59;-2.75;67.04
72126;SHT31;59999;51.676;22.650;2024-01-16T11:10:31;-2.71;65.50
72126;SHT31;59999;51.676;22.650;2024-01-16T11:13:00;-2.61;65.63
72126;SHT31;59999;51.676;22.650;2024-01-16T11:15:28;-2.58;65.11
72126;SHT31;59999;51.676;22.650;2024-01-16T11:17:59;-2.60;64.72
72126;SHT31;59999;51.676;22.650;2024-01-16T11:20:25;-2.58;65.30
72126;SHT31;59999;51.676;22.650;2024-01-16T11:22:53;-2.58;65.66
72126;SHT31;59999;51.676;22.650;2024-01-16T11:25:32;-2.64;65.37
72126;SHT31;59999;51.676;22.650;2024-01-16T11:28:12;-2.65;64.68
72126;SHT31;59999;51.676;22.650;2024-01-16T11:30:39;-2.62;64.95
72126;SHT31;59999;51.676;22.650;2024-01-16T11:33:06;-2.67;65.59
72126;SHT31;59999;51.676;22.650;2024-01-16T11:35:33;-2.60;65.72
72126;SHT31;59999;51.676;22.650;2024-01-16T11:38:13;-2.54;65.25
72126;SHT31;59999;51.676;22.650;2024-01-16T11:40:40;-2.53;63.58
72126;SHT31;59999;51.676;22.650;2024-01-16T11:43:45;-2.51;62.57
72126;SHT31;59999;51.676;22.650;2024-01-16T11:46:11;-2.54;61.89
72126;SHT31;59999;51.676;22.650;2024-01-16T11:48:37;-2.56;61.86
72126;SHT31;59999;51.676;22.650;2024-01-16T11:51:31;-2.67;62.53
72126;SHT31;59999;51.676;22.650;2024-01-16T11:53:56;-2.74;62.41
72126;SHT31;59999;51.676;22.650;2024-01-16T11:57:05;-2.65;63.16
72126;SHT31;59999;51.676;22.650;2024-01-16T12:02:02;-2.60;62.87
72126;SHT31;59999;51.676;22.650;2024-01-16T12:04:30;-2.58;61.44
72126;SHT31;59999;51.676;22.650;2024-01-16T12:06:59;-2.53;61.48
72126;SHT31;59999;51.676;22.650;2024-01-16T12:09:27;-2.50;61.55
72126;SHT31;59999;51.676;22.650;2024-01-16T12:12:00;-2.50;61.89
72126;SHT31;59999;51.676;22.650;2024-01-16T12:14:27;-2.47;62.26
72126;SHT31;59999;51.676;22.650;2024-01-16T12:17:08;-2.50;62.23
72126;SHT31;59999;51.676;22.650;2024-01-16T12:19:34;-2.49;61.72
72126;SHT31;59999;51.676;22.650;2024-01-16T12:22:00;-2.41;61.93
72126;SHT31;59999;51.676;22.650;2024-01-16T12:24:26;-2.39;61.48
72126;SHT31;59999;51.676;22.650;2024-01-16T12:26:52;-2.44;60.61
72126;SHT31;59999;51.676;22.650;2024-01-16T12:29:18;-2.44;60.22
72126;SHT31;59999;51.676;22.650;2024-01-16T12:31:44;-2.46;60.05
72126;SHT31;59999;51.676;22.650;2024-01-16T12:34:10;-2.46;60.16
72126;SHT31;59999;51.676;22.650;2024-01-16T12:36:36;-2.65;60.33
72126;SHT31;59999;51.676;22.650;2024-01-16T12:39:03;-2.68;61.38
72126;SHT31;59999;51.676;22.650;2024-01-16T12:41:35;-2.67;62.01
72126;SHT31;59999;51.676;22.650;2024-01-16T12:44:03;-2.74;61.51
72126;SHT31;59999;51.676;22.650;2024-01-16T12:46:28;-2.85;61.21
72126;SHT31;59999;51.676;22.650;2024-01-16T12:49:03;-2.92;61.14
72126;SHT31;59999;51.676;22.650;2024-01-16T12:51:29;-2.87;61.09
72126;SHT31;59999;51.676;22.650;2024-01-16T12:54:12;-2.80;61.07
72126;SHT31;59999;51.676;22.650;2024-01-16T12:56:38;-2.75;60.15
72126;SHT31;59999;51.676;22.650;2024-01-16T12:59:11;-2.72;60.19
72126;SHT31;59999;51.676;22.650;2024-01-16T13:01:41;-2.78;59.78
72126;SHT31;59999;51.676;22.650;2024-01-16T13:04:12;-2.71;59.49
72126;SHT31;59999;51.676;22.650;2024-01-16T13:06:39;-2.82;59.72
72126;SHT31;59999;51.676;22.650;2024-01-16T13:09:12;-2.72;59.94
72126;SHT31;59999;51.676;22.650;2024-01-16T13:11:53;-2.67;59.80
72126;SHT31;59999;51.676;22.650;2024-01-16T13:14:21;-2.62;59.64
72126;SHT31;59999;51.676;22.650;2024-01-16T13:16:51;-2.65;58.68
72126;SHT31;59999;51.676;22.650;2024-01-16T13:19:18;-2.65;58.67
72126;SHT31;59999;51.676;22.650;2024-01-16T13:21:45;-2.75;59.34
72126;SHT31;59999;51.676;22.650;2024-01-16T13:24:10;-2.81;59.38
72126;SHT31;59999;51.676;22.650;2024-01-16T13:26:36;-2.80;60.01
72126;SHT31;59999;51.676;22.650;2024-01-16T13:29:02;-2.88;59.83
72126;SHT31;59999;51.676;22.650;2024-01-16T13:31:29;-2.92;60.31
72126;SHT31;59999;51.676;22.650;2024-01-16T13:33:55;-2.98;60.42
72126;SHT31;59999;51.676;22.650;2024-01-16T13:36:22;-3.01;60.71
72126;SHT31;59999;51.676;22.650;2024-01-16T13:38:48;-3.02;61.00
72126;SHT31;59999;51.676;22.650;2024-01-16T13:41:15;-3.06;61.16
72126;SHT31;59999;51.676;22.650;2024-01-16T13:43:40;-3.11;61.23
72126;SHT31;59999;51.676;22.650;2024-01-16T13:46:06;-3.13;61.09
72126;SHT31;59999;51.676;22.650;2024-01-16T13:48:34;-3.24;61.38
72126;SHT31;59999;51.676;22.650;2024-01-16T13:51:00;-3.33;61.54
72126;SHT31;59999;51.676;22.650;2024-01-16T13:53:26;-3.50;62.01
72126;SHT31;59999;51.676;22.650;2024-01-16T13:55:53;-3.59;62.76
72126;SHT31;59999;51.676;22.650;2024-01-16T13:58:18;-3.64;63.25
72126;SHT31;59999;51.676;22.650;2024-01-16T14:00:44;-3.71;63.54
72126;SHT31;59999;51.676;22.650;2024-01-16T14:03:10;-3.81;63.80
72126;SHT31;59999;51.676;22.650;2024-01-16T14:05:36;-3.88;64.20
72126;SHT31;59999;51.676;22.650;2024-01-16T14:08:02;-3.94;64.54
72126;SHT31;59999;51.676;22.650;2024-01-16T14:10:28;-4.03;64.78
72126;SHT31;59999;51.676;22.650;2024-01-16T14:12:55;-4.12;65.15
72126;SHT31;59999;51.676;22.650;2024-01-16T14:15:21;-4.20;65.58
72126;SHT31;59999;51.676;22.650;2024-01-16T14:17:54;-4.26;65.83
72126;SHT31;59999;51.676;22.650;2024-01-16T14:20:22;-4.33;66.13
72126;SHT31;59999;51.676;22.650;2024-01-16T14:22:50;-4.37;66.45
72126;SHT31;59999;51.676;22.650;2024-01-16T14:25:17;-4.49;66.72
72126;SHT31;59999;51.676;22.650;2024-01-16T14:27:48;-4.52;66.94
72126;SHT31;59999;51.676;22.650;2024-01-16T14:30:15;-4.53;67.38
72126;SHT31;59999;51.676;22.650;2024-01-16T14:32:44;-4.61;67.79
72126;SHT31;59999;51.676;22.650;2024-01-16T14:35:12;-4.67;68.00
72126;SHT31;59999;51.676;22.650;2024-01-16T14:37:39;-4.67;68.11
72126;SHT31;59999;51.676;22.650;2024-01-16T14:40:05;-4.73;68.39
72126;SHT31;59999;51.676;22.650;2024-01-16T14:42:52;-4.74;68.59
72126;SHT31;59999;51.676;22.650;2024-01-16T14:45:25;-4.76;68.79
72126;SHT31;59999;51.676;22.650;2024-01-16T14:47:52;-4.77;69.01
72126;SHT31;59999;51.676;22.650;2024-01-16T14:50:20;-4.83;69.11
72126;SHT31;59999;51.676;22.650;2024-01-16T14:52:51;-4.85;69.42
72126;SHT31;59999;51.676;22.650;2024-01-16T14:55:17;-4.89;69.58
72126;SHT31;59999;51.676;22.650;2024-01-16T14:57:43;-4.97;69.97
72126;SHT31;59999;51.676;22.650;2024-01-16T15:00:12;-5.01;70.03
72126;SHT31;59999;51.676;22.650;2024-01-16T15:02:46;-5.05;70.40
72126;SHT31;59999;51.676;22.650;2024-01-16T15:05:14;-5.11;70.49
72126;SHT31;59999;51.676;22.650;2024-01-16T15:07:41;-5.15;70.84
72126;SHT31;59999;51.676;22.650;2024-01-16T15:10:09;-5.22;71.00
72126;SHT31;59999;51.676;22.650;2024-01-16T15:12:39;-5.26;71.21
72126;SHT31;59999;51.676;22.650;2024-01-16T15:15:10;-5.30;71.18
72126;SHT31;59999;51.676;22.650;2024-01-16T15:17:42;-5.32;71.29
72126;SHT31;59999;51.676;22.650;2024-01-16T15:20:09;-5.36;71.28
72126;SHT31;59999;51.676;22.650;2024-01-16T15:22:40;-5.40;71.40